Time;durP1;ratioP1;P1;durP2;ratioP2;P2;SDS_P1;SDS_P2;PMS_P1;PMS_P2;Temp;Humidity;BMP_temperature;BMP_pressure;BME280_temperature;BME280_humidity;BME280_pressure;Samples;Min_cycle;Max_cycle;Signal;HPM_P1;HPM_P2
2024/02/23 00:00:20;;;;;;;;;;;;;;;-3.18;83.16;92968.25;4955182;28;19926;-62
2024/02/23 00:02:46;;;;;;;;;;;;;;;-3.07;82.16;92985.34;4955804;28;20136;-61
2024/02/23 00:05:11;;;;;;;;;;;;;;;-2.96;79.80;92997.25;4955171;28;19957;-61
2024/02/23 00:07:36;;;;;;;;;;;;;;;-3.10;80.35;93001.28;4955358;28;19965;-61
2024/02/23 00:10:02;;;;;;;;;;;;;;;-3.01;79.85;93013.38;4954582;28;20821;-61
2024/02/23 00:12:27;;;;;;;;;;;;;;;-3.06;78.75;93013.00;4955131;28;20593;-59
2024/02/23 00:14:53;;;;;;;;;;;;;;;-3.05;76.80;93032.06;4955041;28;19936;-60
2024/02/23 00:17:18;;;;;;;;;;;;;;;-2.86;76.76;93023.16;4955250;28;20549;-62
2024/02/23 00:19:45;;;;;;;;;;;;;;;-3.05;75.79;93051.06;4955065;28;20619;-62
2024/02/23 00:22:10;;;;;;;;;;;;;;;-2.93;75.93;93035.16;4954816;28;20017;-61
2024/02/23 00:24:36;;;;;;;;;;;;;;;-3.23;75.55;93030.34;4954418;28;19926;-60
2024/02/23 00:27:02;;;;;;;;;;;;;;;-2.99;75.32;93049.63;4955225;28;19964;-62
2024/02/23 00:29:27;;;;;;;;;;;;;;;-2.82;73.45;93058.31;4955272;28;19930;-60
2024/02/23 00:31:52;;;;;;;;;;;;;;;-2.96;74.19;93049.31;4956165;28;19926;-61
2024/02/23 00:34:17;;;;;;;;;;;;;;;-2.99;73.12;93041.03;4955957;28;19932;-61
2024/02/23 00:36:44;;;;;;;;;;;;;;;-2.76;72.61;93083.75;4954886;28;19970;-60
2024/02/23 00:39:09;;;;;;;;;;;;;;;-2.85;74.00;93081.25;4955827;28;20164;-61
2024/02/23 00:41:35;;;;;;;;;;;;;;;-3.27;77.02;93068.91;4955273;28;19930;-61
2024/02/23 00:44:00;;;;;;;;;;;;;;;-3.33;78.88;93074.72;4955807;28;19962;-61
2024/02/23 00:46:26;;;;;;;;;;;;;;;-3.60;79.08;93122.53;4955227;28;20098;-61
2024/02/23 00:48:51;;;;;;;;;;;;;;;-3.58;78.88;93094.56;4955017;28;20142;-61
2024/02/23 00:51:16;;;;;;;;;;;;;;;-3.44;81.08;93106.19;4955470;28;19922;-61
2024/02/23 00:53:41;;;;;;;;;;;;;;;-4.19;84.83;93140.25;4951862;28;20327;-61
2024/02/23 00:56:07;;;;;;;;;;;;;;;-4.77;89.54;93144.84;4948281;28;20173;-60
2024/02/23 00:58:32;;;;;;;;;;;;;;;-4.84;92.92;93146.38;4955411;28;20715;-59
2024/02/23 01:00:57;;;;;;;;;;;;;;;-4.53;93.32;93146.06;4954787;28;19922;-61
2024/02/23 01:03:23;;;;;;;;;;;;;;;-4.62;92.25;93155.53;4956305;28;19980;-61
2024/02/23 01:05:48;;;;;;;;;;;;;;;-4.86;94.36;93180.25;4955371;28;19970;-60
2024/02/23 01:08:13;;;;;;;;;;;;;;;-5.00;94.72;93181.53;4950633;28;19929;-60
2024/02/23 01:10:38;;;;;;;;;;;;;;;-5.02;95.29;93141.97;4954573;28;20293;-61
2024/02/23 01:13:04;;;;;;;;;;;;;;;-5.23;96.02;93168.13;4955305;28;19954;-61
2024/02/23 01:15:30;;;;;;;;;;;;;;;-5.12;97.02;93183.50;4955412;28;19929;-61
2024/02/23 01:17:56;;;;;;;;;;;;;;;-5.11;96.11;93185.13;4955404;28;20634;-59
2024/02/23 01:20:21;;;;;;;;;;;;;;;-5.07;95.75;93196.88;4955256;28;19928;-61
2024/02/23 01:22:46;;;;;;;;;;;;;;;-4.80;94.45;93188.47;4955012;28;20070;-61
2024/02/23 01:25:12;;;;;;;;;;;;;;;-4.90;94.35;93194.50;4954737;28;20016;-61
2024/02/23 01:27:37;;;;;;;;;;;;;;;-4.83;93.78;93199.91;4955783;28;20536;-60
2024/02/23 01:30:03;;;;;;;;;;;;;;;-4.92;93.27;93205.97;4954926;28;19934;-60
2024/02/23 01:32:28;;;;;;;;;;;;;;;-5.00;93.14;93210.09;4955633;28;20446;-60
2024/02/23 01:34:54;;;;;;;;;;;;;;;-4.96;94.54;93195.06;4954736;28;19934;-61
2024/02/23 01:37:19;;;;;;;;;;;;;;;-4.65;91.78;93210.41;4954493;28;19926;-60
2024/02/23 01:39:44;;;;;;;;;;;;;;;-4.75;91.16;93212.22;4957939;28;19930;-62
2024/02/23 01:42:10;;;;;;;;;;;;;;;-4.32;90.06;93202.97;4958594;28;20320;-61
2024/02/23 01:44:35;;;;;;;;;;;;;;;-4.53;87.99;93215.38;4959256;28;19922;-60
2024/02/23 01:47:00;;;;;;;;;;;;;;;-4.92;89.57;93217.19;4959167;28;19914;-59
2024/02/23 01:49:29;;;;;;;;;;;;;;;-4.43;86.38;93205.75;4958884;28;19980;-62
2024/02/23 01:51:55;;;;;;;;;;;;;;;-4.66;87.47;93221.72;4958235;28;19965;-62
2024/02/23 01:54:21;;;;;;;;;;;;;;;-4.62;87.03;93224.88;4950344;28;20000;-62
2024/02/23 01:56:46;;;;;;;;;;;;;;;-4.14;85.53;93223.00;4964458;28;19918;-62
2024/02/23 01:59:11;;;;;;;;;;;;;;;-4.30;85.95;93237.44;4959227;28;19978;-61
2024/02/23 02:01:36;;;;;;;;;;;;;;;-4.24;86.05;93245.59;4972945;28;20003;-62
2024/02/23 02:04:02;;;;;;;;;;;;;;;-4.25;82.28;93249.16;4958772;28;19929;-62
2024/02/23 02:06:27;;;;;;;;;;;;;;;-4.03;82.83;93247.94;4955401;28;19930;-62
2024/02/23 02:08:52;;;;;;;;;;;;;;;-4.10;81.06;93245.13;4956158;28;20393;-62
2024/02/23 02:11:18;;;;;;;;;;;;;;;-4.22;80.87;93254.88;4956897;28;19922;-62
2024/02/23 02:13:43;;;;;;;;;;;;;;;-4.30;79.81;93242.63;4958246;28;19930;-62
2024/02/23 02:16:09;;;;;;;;;;;;;;;-4.45;81.08;93252.66;4958064;28;19926;-62
2024/02/23 02:18:34;;;;;;;;;;;;;;;-4.25;80.02;93246.56;4958621;28;19926;-62
2024/02/23 02:21:00;;;;;;;;;;;;;;;-4.47;79.51;93243.38;4955323;28;20010;-62
2024/02/23 02:23:28;;;;;;;;;;;;;;;-4.28;80.33;93257.25;4953585;28;19926;-62
2024/02/23 02:25:54;;;;;;;;;;;;;;;-4.43;79.94;93255.13;4957434;28;20547;-62
2024/02/23 02:28:20;;;;;;;;;;;;;;;-4.16;78.23;93250.88;4957879;28;19967;-62
2024/02/23 02:30:45;;;;;;;;;;;;;;;-3.91;76.82;93248.53;4957770;28;19930;-62
2024/02/23 02:33:10;;;;;;;;;;;;;;;-3.46;75.50;93248.66;4957713;28;19930;-62
2024/02/23 02:35:35;;;;;;;;;;;;;;;-3.66;74.21;93244.41;4958265;28;20016;-62
2024/02/23 02:38:00;;;;;;;;;;;;;;;-3.46;74.76;93246.03;4957384;28;20783;-62
2024/02/23 02:40:26;;;;;;;;;;;;;;;-3.50;73.30;93237.69;4956033;28;19962;-62
2024/02/23 02:42:51;;;;;;;;;;;;;;;-2.76;71.89;93236.59;4954991;28;19967;-62
2024/02/23 02:45:17;;;;;;;;;;;;;;;-3.22;72.65;93239.41;4956990;28;19953;-62
2024/02/23 02:47:42;;;;;;;;;;;;;;;-3.47;73.05;93247.81;4952879;28;20008;-62
2024/02/23 02:50:08;;;;;;;;;;;;;;;-3.33;74.01;93264.69;4954929;28;20048;-62
2024/02/23 02:52:33;;;;;;;;;;;;;;;-3.74;75.22;93269.53;4955111;28;19930;-62
2024/02/23 02:54:58;;;;;;;;;;;;;;;-4.17;76.47;93283.84;4955055;28;19954;-62
2024/02/23 02:57:24;;;;;;;;;;;;;;;-4.06;77.45;93269.03;4953426;28;19993;-62
2024/02/23 02:59:50;;;;;;;;;;;;;;;-4.07;77.62;93291.59;4958029;28;19972;-62
2024/02/23 03:02:15;;;;;;;;;;;;;;;-4.33;78.87;93291.44;4955045;28;19983;-62
2024/02/23 03:04:46;;;;;;;;;;;;;;;-4.37;78.67;93261.53;4956867;28;20403;-62
2024/02/23 03:07:11;;;;;;;;;;;;;;;-4.25;78.48;93259.56;4957392;28;20635;-62
2024/02/23 03:09:37;;;;;;;;;;;;;;;-4.07;77.00;93270.81;4952060;28;19965;-62
2024/02/23 03:12:02;;;;;;;;;;;;;;;-4.11;78.22;93272.06;4955800;28;19969;-62
2024/02/23 03:14:27;;;;;;;;;;;;;;;-3.82;77.25;93265.06;4956429;28;20497;-62
2024/02/23 03:16:52;;;;;;;;;;;;;;;-3.79;78.40;93276.00;4953394;28;20161;-63
2024/02/23 03:19:22;;;;;;;;;;;;;;;-3.78;79.17;93280.22;4955212;28;20705;-62
2024/02/23 03:21:47;;;;;;;;;;;;;;;-3.86;79.25;93264.53;4956647;28;19933;-63
2024/02/23 03:24:12;;;;;;;;;;;;;;;-3.32;77.14;93270.72;4956315;28;19926;-62
2024/02/23 03:26:37;;;;;;;;;;;;;;;-3.10;75.89;93269.41;4956669;28;19922;-63
2024/02/23 03:29:03;;;;;;;;;;;;;;;-3.38;76.09;93276.50;4952562;28;20347;-62
2024/02/23 03:31:28;;;;;;;;;;;;;;;-2.98;74.23;93282.19;4952177;28;19925;-62
2024/02/23 03:33:54;;;;;;;;;;;;;;;-3.63;76.40;93281.50;4958008;28;19926;-63
2024/02/23 03:36:19;;;;;;;;;;;;;;;-3.33;75.54;93289.91;4954704;28;20407;-61
2024/02/23 03:38:44;;;;;;;;;;;;;;;-3.59;75.82;93301.88;4956614;28;19973;-62
2024/02/23 03:41:09;;;;;;;;;;;;;;;-3.30;74.76;93290.41;4949794;28;19977;-63
2024/02/23 03:43:35;;;;;;;;;;;;;;;-2.57;72.40;93290.28;4950187;28;20048;-61
2024/02/23 03:46:00;;;;;;;;;;;;;;;-2.07;69.96;93305.34;4956184;28;19980;-61
2024/02/23 03:48:25;;;;;;;;;;;;;;;-2.35;69.47;93297.72;4957353;28;19918;-63
2024/02/23 03:50:50;;;;;;;;;;;;;;;-2.33;69.85;93299.22;4955891;28;19989;-63
2024/02/23 03:53:16;;;;;;;;;;;;;;;-1.89;70.63;93295.66;4955828;28;20348;-61
2024/02/23 03:55:41;;;;;;;;;;;;;;;-1.80;68.62;93293.84;4950095;28;20281;-61
2024/02/23 03:58:06;;;;;;;;;;;;;;;-1.96;69.19;93293.81;4956586;28;19930;-63
2024/02/23 04:00:32;;;;;;;;;;;;;;;-1.44;67.65;93299.81;4956550;28;20034;-61
2024/02/23 04:02:57;;;;;;;;;;;;;;;-2.29;70.60;93312.75;4954569;28;19922;-62
2024/02/23 04:05:22;;;;;;;;;;;;;;;-2.29;70.91;93297.94;4955946;28;20415;-60
2024/02/23 04:07:47;;;;;;;;;;;;;;;-2.14;70.53;93329.44;4956396;28;20366;-63
2024/02/23 04:10:16;;;;;;;;;;;;;;;-2.33;69.96;93330.50;4956045;28;20028;-62
2024/02/23 04:12:41;;;;;;;;;;;;;;;-2.08;70.49;93314.16;4955985;28;19922;-63
2024/02/23 04:15:07;;;;;;;;;;;;;;;-2.35;70.74;93316.78;4956380;28;19926;-61
2024/02/23 04:17:32;;;;;;;;;;;;;;;-1.92;69.19;93318.59;4954328;28;19926;-62
2024/02/23 04:19:58;;;;;;;;;;;;;;;-1.87;69.64;93305.91;4956088;28;19934;-63
2024/02/23 04:22:23;;;;;;;;;;;;;;;-1.99;69.95;93311.44;4970236;28;19937;-64
2024/02/23 04:24:49;;;;;;;;;;;;;;;-2.76;69.95;93318.16;4956050;28;19973;-64
2024/02/23 04:27:14;;;;;;;;;;;;;;;-2.57;68.97;93324.16;4955789;28;19969;-64
2024/02/23 04:29:39;;;;;;;;;;;;;;;-1.65;67.05;93317.56;4955685;28;19930;-64
2024/02/23 04:32:05;;;;;;;;;;;;;;;-1.72;65.61;93319.19;4970386;28;19922;-64
2024/02/23 04:34:30;;;;;;;;;;;;;;;-1.70;64.06;93332.88;4955115;28;19926;-66
2024/02/23 04:36:56;;;;;;;;;;;;;;;-1.62;65.33;93327.66;4955395;28;20100;-65
2024/02/23 04:39:21;;;;;;;;;;;;;;;-1.18;64.29;93330.22;4956532;28;20694;-64
2024/02/23 04:41:47;;;;;;;;;;;;;;;-1.60;64.36;93333.56;4953672;28;19930;-64
2024/02/23 04:44:12;;;;;;;;;;;;;;;-2.18;65.10;93342.94;4956225;28;19925;-65
2024/02/23 04:46:37;;;;;;;;;;;;;;;-2.13;66.18;93343.31;4955752;28;20647;-64
2024/02/23 04:49:03;;;;;;;;;;;;;;;-1.65;64.56;93350.66;4955260;28;19937;-64
2024/02/23 04:51:28;;;;;;;;;;;;;;;-2.56;66.96;93351.84;4955380;28;19914;-64
2024/02/23 04:53:53;;;;;;;;;;;;;;;-1.35;64.10;93340.63;4954167;28;19936;-63
2024/02/23 04:56:18;;;;;;;;;;;;;;;-0.96;65.15;93340.06;4947069;28;20000;-64
2024/02/23 04:58:44;;;;;;;;;;;;;;;-1.10;65.88;93348.50;4955324;28;19933;-64
2024/02/23 05:01:10;;;;;;;;;;;;;;;-0.37;63.42;93347.88;4954436;28;20435;-66
2024/02/23 05:03:35;;;;;;;;;;;;;;;-0.33;59.45;93357.81;4969687;28;19922;-65
2024/02/23 05:06:01;;;;;;;;;;;;;;;-0.40;57.23;93353.44;4955608;28;20552;-65
2024/02/23 05:08:27;;;;;;;;;;;;;;;-0.71;60.98;93362.78;4954269;28;19937;-64
2024/02/23 05:10:52;;;;;;;;;;;;;;;-0.61;62.95;93358.19;4955567;28;19992;-64
2024/02/23 05:13:18;;;;;;;;;;;;;;;-0.25;59.10;93362.25;4954324;28;19933;-65
2024/02/23 05:15:43;;;;;;;;;;;;;;;-0.29;62.41;93363.56;4955491;28;20414;-64
2024/02/23 05:18:08;;;;;;;;;;;;;;;0.34;58.25;93366.31;4954224;28;19938;-65
2024/02/23 05:20:33;;;;;;;;;;;;;;;-0.64;59.17;93360.31;4955942;28;20615;-64
2024/02/23 05:22:59;;;;;;;;;;;;;;;-1.00;59.28;93361.41;4954531;28;19926;-66
2024/02/23 05:25:25;;;;;;;;;;;;;;;-0.84;59.76;93366.66;4955126;28;19926;-64
2024/02/23 05:27:51;;;;;;;;;;;;;;;0.23;66.11;93358.84;4954933;28;20021;-65
2024/02/23 05:30:16;;;;;;;;;;;;;;;-0.23;60.05;93367.31;4955045;28;20021;-66
2024/02/23 05:32:41;;;;;;;;;;;;;;;-0.32;59.38;93372.56;4954695;28;20447;-65
2024/02/23 05:35:06;;;;;;;;;;;;;;;-0.91;60.34;93362.28;4955165;28;19926;-64
2024/02/23 05:37:32;;;;;;;;;;;;;;;-1.37;66.05;93369.50;4954092;28;19926;-66
2024/02/23 05:39:59;;;;;;;;;;;;;;;-2.78;65.75;93376.59;4955318;28;20036;-65
2024/02/23 05:42:25;;;;;;;;;;;;;;;-1.15;63.96;93369.88;4949399;28;20493;-64
2024/02/23 05:44:50;;;;;;;;;;;;;;;-1.44;66.98;93363.28;4954740;28;19925;-66
2024/02/23 05:47:15;;;;;;;;;;;;;;;-0.80;59.73;93368.97;4954607;28;19926;-64
2024/02/23 05:49:41;;;;;;;;;;;;;;;-1.03;59.95;93365.16;4955084;28;20525;-64
2024/02/23 05:52:06;;;;;;;;;;;;;;;-0.93;59.88;93351.97;4954513;28;19929;-65
2024/02/23 05:54:31;;;;;;;;;;;;;;;-1.57;61.15;93342.84;4953024;28;19926;-64
2024/02/23 05:56:57;;;;;;;;;;;;;;;-1.30;60.54;93353.19;4954650;28;20023;-65
2024/02/23 05:59:22;;;;;;;;;;;;;;;-1.66;61.98;93349.84;4954821;28;20022;-64
2024/02/23 06:01:47;;;;;;;;;;;;;;;-1.60;62.11;93348.38;4954036;28;19985;-64
2024/02/23 06:04:12;;;;;;;;;;;;;;;-1.27;62.02;93343.25;4954824;28;20220;-66
2024/02/23 06:06:40;;;;;;;;;;;;;;;-1.57;62.51;93355.91;4952998;28;20210;-65
2024/02/23 06:09:06;;;;;;;;;;;;;;;-1.35;61.72;93345.88;4954426;28;19972;-65
2024/02/23 06:11:31;;;;;;;;;;;;;;;-1.31;61.31;93333.28;4954720;28;20044;-64
2024/02/23 06:13:56;;;;;;;;;;;;;;;-1.01;60.04;93342.31;4954856;28;20040;-64
2024/02/23 06:16:21;;;;;;;;;;;;;;;-1.87;62.28;93339.81;4954136;28;19964;-64
2024/02/23 06:18:47;;;;;;;;;;;;;;;-2.31;64.47;93346.78;4954174;28;20228;-64
2024/02/23 06:21:13;;;;;;;;;;;;;;;-2.19;65.26;93342.13;4954533;28;19926;-64
2024/02/23 06:23:39;;;;;;;;;;;;;;;-1.82;64.79;93334.97;4954672;28;20387;-66
2024/02/23 06:26:05;;;;;;;;;;;;;;;-2.03;64.15;93345.78;4958034;28;19930;-64
2024/02/23 06:28:30;;;;;;;;;;;;;;;-2.63;63.95;93376.88;4957662;28;19926;-66
2024/02/23 06:30:55;;;;;;;;;;;;;;;-1.59;61.56;93350.03;4957883;28;19971;-65
2024/02/23 06:33:20;;;;;;;;;;;;;;;-0.62;61.52;93355.72;4957166;28;20518;-65
2024/02/23 06:35:46;;;;;;;;;;;;;;;-0.87;59.71;93364.41;4958778;28;19980;-64
2024/02/23 06:38:11;;;;;;;;;;;;;;;-1.70;61.74;93369.41;4957336;28;20029;-65
2024/02/23 06:40:36;;;;;;;;;;;;;;;-0.98;66.79;93359.47;4955844;28;19969;-66
2024/02/23 06:43:01;;;;;;;;;;;;;;;0.18;65.46;93369.00;4953758;28;20463;-63
2024/02/23 06:45:27;;;;;;;;;;;;;;;0.54;63.19;93363.28;4957434;28;19960;-63
2024/02/23 06:47:52;;;;;;;;;;;;;;;0.90;61.54;93382.09;4958004;28;19933;-63
2024/02/23 06:50:17;;;;;;;;;;;;;;;0.03;56.70;93367.06;4957560;28;20395;-63
2024/02/23 06:52:42;;;;;;;;;;;;;;;0.40;57.79;93372.69;4956734;28;19933;-63
2024/02/23 06:55:10;;;;;;;;;;;;;;;0.85;60.75;93372.94;4957669;28;19965;-63
2024/02/23 06:57:36;;;;;;;;;;;;;;;-0.03;59.57;93375.59;4957571;28;20435;-63
2024/02/23 07:00:02;;;;;;;;;;;;;;;-0.10;56.15;93395.56;4957935;28;20383;-63
2024/02/23 07:02:27;;;;;;;;;;;;;;;0.23;58.18;93378.94;4956973;28;19930;-63
2024/02/23 07:04:54;;;;;;;;;;;;;;;0.93;63.40;93387.00;4957405;28;19925;-63
2024/02/23 07:07:19;;;;;;;;;;;;;;;0.72;64.90;93383.97;4957850;28;19918;-63
2024/02/23 07:09:45;;;;;;;;;;;;;;;1.36;58.32;93387.34;4957410;28;20705;-63
2024/02/23 07:12:13;;;;;;;;;;;;;;;1.52;61.04;93384.78;4957169;28;19948;-63
2024/02/23 07:14:38;;;;;;;;;;;;;;;1.01;51.54;93397.41;4956831;28;20384;-63
2024/02/23 07:17:03;;;;;;;;;;;;;;;1.06;56.96;93405.56;4957100;28;19922;-63
2024/02/23 07:19:29;;;;;;;;;;;;;;;-0.01;55.58;93401.59;4948832;28;20340;-63
2024/02/23 07:21:54;;;;;;;;;;;;;;;1.07;54.84;93414.25;4953819;28;19988;-63
2024/02/23 07:24:20;;;;;;;;;;;;;;;1.29;52.53;93417.09;4953315;28;19945;-63
2024/02/23 07:26:45;;;;;;;;;;;;;;;-0.84;56.49;93415.53;4954342;28;19969;-63
2024/02/23 07:29:10;;;;;;;;;;;;;;;-0.37;65.46;93408.81;4954561;28;19965;-62
2024/02/23 07:31:35;;;;;;;;;;;;;;;0.30;55.20;93427.84;4955442;28;20050;-63
2024/02/23 07:34:00;;;;;;;;;;;;;;;0.23;66.05;93415.59;4954761;28;19936;-63
2024/02/23 07:36:26;;;;;;;;;;;;;;;-1.30;59.41;93410.63;4955620;28;20430;-63
2024/02/23 07:38:51;;;;;;;;;;;;;;;-1.65;61.61;93423.72;4955760;28;20454;-63
2024/02/23 07:41:17;;;;;;;;;;;;;;;0.47;57.04;93418.16;4955552;28;19966;-63
2024/02/23 07:43:43;;;;;;;;;;;;;;;0.11;59.61;93420.38;4956926;28;20442;-63
2024/02/23 07:46:08;;;;;;;;;;;;;;;0.59;59.95;93413.34;4955976;28;19922;-63
2024/02/23 07:48:35;;;;;;;;;;;;;;;1.25;55.72;93429.72;4957020;28;19930;-63
2024/02/23 07:51:00;;;;;;;;;;;;;;;0.47;57.92;93425.16;4956861;28;20487;-63
2024/02/23 07:53:27;;;;;;;;;;;;;;;1.57;55.88;93422.63;4956352;28;20355;-63
2024/02/23 07:55:52;;;;;;;;;;;;;;;0.47;58.69;93412.91;4955749;28;19926;-63
2024/02/23 07:58:18;;;;;;;;;;;;;;;1.49;56.31;93409.53;4955128;28;20440;-63
2024/02/23 08:00:44;;;;;;;;;;;;;;;2.03;57.13;93413.06;4954521;28;20061;-63
2024/02/23 08:03:10;;;;;;;;;;;;;;;0.95;53.80;93424.31;4953804;28;19981;-63
2024/02/23 08:05:36;;;;;;;;;;;;;;;0.36;57.36;93420.28;4955777;28;20040;-63
2024/02/23 08:08:01;;;;;;;;;;;;;;;0.81;56.58;93429.28;4956329;28;20430;-63
2024/02/23 08:10:26;;;;;;;;;;;;;;;1.66;55.61;93427.84;4955927;28;19958;-63
2024/02/23 08:12:51;;;;;;;;;;;;;;;2.11;58.16;93427.94;4955604;28;19922;-63
2024/02/23 08:15:16;;;;;;;;;;;;;;;2.36;54.98;93425.88;4955043;28;19989;-63
2024/02/23 08:17:42;;;;;;;;;;;;;;;2.77;53.13;93432.47;4954331;28;20561;-63
2024/02/23 08:20:08;;;;;;;;;;;;;;;2.93;50.90;93430.63;4952655;28;20398;-63
2024/02/23 08:22:33;;;;;;;;;;;;;;;2.78;56.53;93435.88;4953870;28;19955;-63
2024/02/23 08:24:58;;;;;;;;;;;;;;;2.18;50.07;93435.91;4952880;28;20530;-63
2024/02/23 08:27:23;;;;;;;;;;;;;;;3.02;51.39;93442.66;4952195;28;19936;-63
2024/02/23 08:29:49;;;;;;;;;;;;;;;2.57;58.29;93426.13;4952072;28;20533;-63
2024/02/23 08:32:14;;;;;;;;;;;;;;;2.78;59.92;93436.72;4953011;28;19980;-63
2024/02/23 08:34:39;;;;;;;;;;;;;;;2.79;50.50;93429.63;4953424;28;19933;-64
2024/02/23 08:37:04;;;;;;;;;;;;;;;2.73;52.01;93435.63;4952266;28;19934;-63
2024/02/23 08:39:30;;;;;;;;;;;;;;;3.04;58.13;93431.97;4952088;28;19926;-64
2024/02/23 08:41:55;;;;;;;;;;;;;;;3.22;54.77;93436.81;4951251;28;20075;-63
2024/02/23 08:44:20;;;;;;;;;;;;;;;2.70;54.67;93436.81;4950455;28;19996;-63
2024/02/23 08:46:45;;;;;;;;;;;;;;;3.11;54.62;93435.47;4952869;28;19933;-63
2024/02/23 08:49:11;;;;;;;;;;;;;;;2.36;50.43;93446.06;4952884;28;20455;-63
2024/02/23 08:51:36;;;;;;;;;;;;;;;1.68;52.12;93445.03;4953216;28;19976;-64
2024/02/23 08:54:04;;;;;;;;;;;;;;;2.43;55.59;93451.38;4951864;28;19962;-63
2024/02/23 08:56:29;;;;;;;;;;;;;;;2.65;50.15;93449.66;4953842;28;19922;-63
2024/02/23 08:58:54;;;;;;;;;;;;;;;2.85;51.06;93449.09;4951794;28;19932;-63
2024/02/23 09:01:20;;;;;;;;;;;;;;;3.07;52.31;93452.63;4953115;28;19926;-63
2024/02/23 09:03:45;;;;;;;;;;;;;;;3.21;54.01;93450.13;4953215;28;20182;-64
2024/02/23 09:06:10;;;;;;;;;;;;;;;1.68;49.72;93452.06;4951468;28;19989;-64
2024/02/23 09:08:36;;;;;;;;;;;;;;;1.86;54.40;93455.19;4951063;28;19961;-64
2024/02/23 09:11:01;;;;;;;;;;;;;;;1.14;55.40;93451.91;4951356;28;19930;-64
2024/02/23 09:13:29;;;;;;;;;;;;;;;2.29;54.37;93443.34;4951858;28;19992;-64
2024/02/23 09:15:54;;;;;;;;;;;;;;;2.42;54.49;93444.50;4951793;28;19984;-65
2024/02/23 09:18:20;;;;;;;;;;;;;;;2.68;49.60;93446.69;4949892;28;19926;-64
2024/02/23 09:20:45;;;;;;;;;;;;;;;2.57;55.54;93449.75;4952384;28;19922;-64
2024/02/23 09:23:11;;;;;;;;;;;;;;;1.42;55.52;93451.41;4952901;28;19930;-65
2024/02/23 09:25:37;;;;;;;;;;;;;;;2.52;52.51;93455.56;4950525;28;19965;-65
2024/02/23 09:28:02;;;;;;;;;;;;;;;2.47;52.83;93444.78;4949753;28;20028;-64
2024/02/23 09:30:28;;;;;;;;;;;;;;;2.23;51.00;93438.78;4950617;28;19980;-64
2024/02/23 09:32:53;;;;;;;;;;;;;;;1.20;55.26;93455.63;4951120;28;19933;-65
2024/02/23 09:35:19;;;;;;;;;;;;;;;1.78;53.06;93451.81;4950853;28;19932;-64
2024/02/23 09:37:45;;;;;;;;;;;;;;;0.86;57.01;93452.38;4952338;28;19974;-65
2024/02/23 09:40:10;;;;;;;;;;;;;;;1.94;59.10;93446.44;4951983;28;20068;-64
2024/02/23 09:42:35;;;;;;;;;;;;;;;2.96;54.62;93437.31;4951095;28;19961;-64
2024/02/23 09:45:01;;;;;;;;;;;;;;;3.52;51.28;93447.28;4951651;28;19934;-64
2024/02/23 09:47:26;;;;;;;;;;;;;;;2.71;53.49;93454.19;4953144;28;19922;-64
2024/02/23 09:49:52;;;;;;;;;;;;;;;2.89;52.28;93448.56;4953212;28;20028;-65
2024/02/23 09:52:18;;;;;;;;;;;;;;;2.38;52.78;93457.19;4949967;28;20366;-65
2024/02/23 09:54:43;;;;;;;;;;;;;;;1.08;53.34;93471.75;4965069;28;20622;-65
2024/02/23 09:57:08;;;;;;;;;;;;;;;0.24;61.36;93462.53;4946211;28;19934;-64
2024/02/23 09:59:34;;;;;;;;;;;;;;;1.71;56.91;93454.34;4955154;28;19930;-64
2024/02/23 10:01:59;;;;;;;;;;;;;;;1.61;57.00;93465.88;4955139;28;19953;-63
2024/02/23 10:04:25;;;;;;;;;;;;;;;2.10;54.68;93455.97;4956225;28;19929;-64
2024/02/23 10:06:50;;;;;;;;;;;;;;;2.49;52.73;93448.84;4955150;28;19926;-64
2024/02/23 10:09:15;;;;;;;;;;;;;;;2.97;53.47;93452.09;4956327;28;19930;-65
2024/02/23 10:11:40;;;;;;;;;;;;;;;2.32;53.71;93450.88;4954567;28;19926;-64
2024/02/23 10:14:05;;;;;;;;;;;;;;;2.63;54.72;93452.47;4955426;28;20392;-63
2024/02/23 10:16:31;;;;;;;;;;;;;;;2.35;54.21;93454.94;4956407;28;20025;-63
2024/02/23 10:18:57;;;;;;;;;;;;;;;2.18;56.87;93459.53;4955010;28;20264;-63
2024/02/23 10:21:23;;;;;;;;;;;;;;;1.49;56.42;93462.81;4951403;28;20404;-63
2024/02/23 10:23:50;;;;;;;;;;;;;;;1.53;53.32;93460.69;4955559;28;19926;-63
2024/02/23 10:26:18;;;;;;;;;;;;;;;2.77;53.48;93447.41;4955394;28;20000;-63
2024/02/23 10:28:45;;;;;;;;;;;;;;;3.11;53.85;93443.38;4955731;28;19922;-63
2024/02/23 10:31:10;;;;;;;;;;;;;;;2.64;54.99;93448.88;4956112;28;19952;-64
2024/02/23 10:33:36;;;;;;;;;;;;;;;2.07;52.03;93458.94;4956042;28;20606;-63
2024/02/23 10:36:01;;;;;;;;;;;;;;;2.89;54.59;93459.06;4962753;28;19969;-63
2024/02/23 10:38:26;;;;;;;;;;;;;;;2.49;52.17;93464.59;4970505;28;20294;-63
2024/02/23 10:40:51;;;;;;;;;;;;;;;0.24;56.90;93473.00;4954509;28;19937;-63
2024/02/23 10:43:17;;;;;;;;;;;;;;;2.12;54.48;93453.19;4953952;28;20058;-63
2024/02/23 10:45:43;;;;;;;;;;;;;;;2.72;50.73;93465.53;4952369;28;19926;-63
2024/02/23 10:48:09;;;;;;;;;;;;;;;3.43;51.91;93453.59;4954797;28;19921;-63
2024/02/23 10:50:34;;;;;;;;;;;;;;;2.12;53.64;93453.97;4953658;28;19941;-64
2024/02/23 10:53:00;;;;;;;;;;;;;;;2.57;52.30;93455.84;4953503;28;19926;-63
2024/02/23 10:55:25;;;;;;;;;;;;;;;3.40;53.15;93448.72;4952334;28;20425;-63
2024/02/23 10:57:50;;;;;;;;;;;;;;;3.41;50.84;93456.41;4968769;28;20235;-63
2024/02/23 11:00:17;;;;;;;;;;;;;;;3.26;50.19;93450.38;4955313;28;20467;-63
2024/02/23 11:02:43;;;;;;;;;;;;;;;1.41;55.40;93472.53;4954648;28;20025;-63
2024/02/23 11:05:12;;;;;;;;;;;;;;;1.47;61.67;93454.31;4965143;28;20323;-63
2024/02/23 11:07:40;;;;;;;;;;;;;;;2.97;52.84;93450.28;4949005;28;19926;-63
2024/02/23 11:10:06;;;;;;;;;;;;;;;-0.79;59.67;93467.28;4945393;28;19948;-63
2024/02/23 11:12:31;;;;;;;;;;;;;;;1.88;57.11;93455.81;4955199;28;19925;-63
2024/02/23 11:15:03;;;;;;;;;;;;;;;3.28;52.38;93458.91;4955384;28;19933;-63
2024/02/23 11:17:30;;;;;;;;;;;;;;;3.59;50.01;93444.69;4953802;28;19960;-63
2024/02/23 11:19:56;;;;;;;;;;;;;;;3.83;49.98;93450.59;4953151;28;20201;-63
2024/02/23 11:22:28;;;;;;;;;;;;;;;2.63;50.72;93451.69;4953781;28;20016;-64
2024/02/23 11:24:54;;;;;;;;;;;;;;;3.13;51.08;93453.72;4952777;28;20454;-63
2024/02/23 11:27:19;;;;;;;;;;;;;;;3.75;52.24;93448.91;4952456;28;19922;-63
2024/02/23 11:29:45;;;;;;;;;;;;;;;2.93;48.96;93459.53;4953326;28;20356;-63
2024/02/23 11:32:14;;;;;;;;;;;;;;;2.17;55.20;93463.16;4949095;28;19933;-63
2024/02/23 11:34:39;;;;;;;;;;;;;;;3.14;51.10;93453.50;4953600;28;19956;-63
2024/02/23 11:37:11;;;;;;;;;;;;;;;2.76;53.86;93461.56;4952512;28;20299;-63
2024/02/23 11:39:39;;;;;;;;;;;;;;;1.35;51.64;93477.50;4954895;28;19922;-63
2024/02/23 11:42:04;;;;;;;;;;;;;;;1.66;54.84;93472.44;4953589;28;19973;-63
2024/02/23 11:44:30;;;;;;;;;;;;;;;1.54;52.41;93469.38;4952185;28;19958;-63
2024/02/23 11:46:55;;;;;;;;;;;;;;;2.27;53.31;93468.94;4954596;28;20020;-63
2024/02/23 11:49:20;;;;;;;;;;;;;;;1.37;54.32;93472.09;4955018;28;20102;-63
2024/02/23 11:51:46;;;;;;;;;;;;;;;2.47;51.20;93463.16;4954419;28;20292;-64
2024/02/23 11:54:11;;;;;;;;;;;;;;;3.46;49.80;93462.97;4954238;28;19926;-64
2024/02/23 11:56:36;;;;;;;;;;;;;;;2.81;48.67;93464.44;4954526;28;19922;-63
2024/02/23 11:59:01;;;;;;;;;;;;;;;2.04;50.73;93459.31;4953575;28;20473;-63
2024/02/23 12:01:28;;;;;;;;;;;;;;;3.26;47.36;93455.66;4953226;28;19957;-64
2024/02/23 12:03:54;;;;;;;;;;;;;;;2.87;48.07;93440.06;4954092;28;19926;-64
2024/02/23 12:06:20;;;;;;;;;;;;;;;2.70;47.48;93443.88;4954395;28;20451;-64
2024/02/23 12:08:46;;;;;;;;;;;;;;;2.83;50.60;93428.28;4953896;28;20572;-64
2024/02/23 12:11:13;;;;;;;;;;;;;;;2.50;47.96;93433.91;4954571;28;20263;-64
2024/02/23 12:13:38;;;;;;;;;;;;;;;3.75;47.08;93437.56;4950544;28;19977;-64
2024/02/23 12:16:04;;;;;;;;;;;;;;;3.98;46.71;93452.34;4953477;28;20021;-64
2024/02/23 12:18:32;;;;;;;;;;;;;;;3.34;48.17;93439.78;4950567;28;20184;-64
2024/02/23 12:21:15;;;;;;;;;;;;;;;4.41;44.97;93428.53;4953978;28;20012;-65
2024/02/23 12:23:41;;;;;;;;;;;;;;;3.59;49.93;93438.63;4950927;28;19922;-64
2024/02/23 12:26:06;;;;;;;;;;;;;;;4.56;45.23;93431.03;4954402;28;19960;-63
2024/02/23 12:28:31;;;;;;;;;;;;;;;3.79;46.60;93444.06;4952775;28;19930;-64
2024/02/23 12:30:58;;;;;;;;;;;;;;;3.59;46.09;93442.06;4953621;28;20423;-64
2024/02/23 12:33:23;;;;;;;;;;;;;;;2.85;47.52;93438.59;4951322;28;20402;-64
2024/02/23 12:35:48;;;;;;;;;;;;;;;4.07;45.47;93425.66;4951970;28;19930;-64
2024/02/23 12:38:13;;;;;;;;;;;;;;;4.60;43.78;93431.47;4952822;28;19930;-64
2024/02/23 12:40:39;;;;;;;;;;;;;;;4.62;47.40;93434.72;4952401;28;20581;-64